Time;durP1;ratioP1;P1;durP2;ratioP2;P2;SDS_P1;SDS_P2;PMS_P1;PMS_P2;Temp;Humidity;BMP_temperature;BMP_pressure;BME280_temperature;BME280_humidity;BME280_pressure;Samples;Min_cycle;Max_cycle;Signal;HPM_P1;HPM_P2
2022/01/13 00:00:37;;;;;;;31.10;19.10;;;;;;;4.10;36.34;100511.66;1720454;81;21082;-62
2022/01/13 00:03:03;;;;;;;31.52;18.48;;;;;;;4.16;36.36;100515.20;1755671;81;21077;-63
2022/01/13 00:05:32;;;;;;;31.55;18.87;;;;;;;4.22;36.41;100514.29;1760876;81;21148;-63
2022/01/13 00:08:00;;;;;;;31.57;18.30;;;;;;;4.29;36.42;100515.58;1767863;80;20924;-63
2022/01/13 00:10:27;;;;;;;30.25;18.48;;;;;;;4.35;36.45;100523.03;1757126;80;20964;-64
2022/01/13 00:13:02;;;;;;;29.25;16.95;;;;;;;4.42;36.47;100522.16;1752092;79;20893;-63
2022/01/13 00:15:39;;;;;;;21.40;15.10;;;;;;;4.47;36.54;100531.05;1760295;81;20935;-63
2022/01/13 00:18:00;;;;;;;25.32;16.45;;;;;;;4.54;36.58;100534.47;1762740;81;21162;-63
2022/01/13 00:25:21;;;;;;;20.10;14.63;;;;;;;4.74;36.53;100513.32;1704240;81;21086;-64
2022/01/13 00:27:54;;;;;;;24.87;16.27;;;;;;;4.76;36.52;100503.50;1764415;79;20947;-62
2022/01/13 00:30:17;;;;;;;27.35;16.50;;;;;;;4.83;36.50;100509.55;1770036;81;21501;-62
2022/01/13 00:32:45;;;;;;;25.35;16.40;;;;;;;4.85;36.52;100506.78;1763654;81;37374;-63
2022/01/13 00:35:12;;;;;;;26.90;16.15;;;;;;;4.91;36.52;100505.89;1769610;79;20991;-64
2022/01/13 00:37:40;;;;;;;28.27;16.65;;;;;;;4.97;36.48;100498.87;1784475;79;21005;-64
2022/01/13 00:40:09;;;;;;;27.15;16.65;;;;;;;4.99;36.44;100502.23;1793178;79;21015;-61
2022/01/13 00:42:35;;;;;;;25.90;16.85;;;;;;;5.01;36.45;100490.23;1781433;79;21118;-62
2022/01/13 00:45:03;;;;;;;33.80;19.50;;;;;;;5.02;36.45;100483.17;1772010;78;20919;-63
2022/01/13 00:47:31;;;;;;;35.65;19.87;;;;;;;4.99;36.46;100493.47;1789629;78;20896;-62
2022/01/13 00:49:57;;;;;;;33.73;20.27;;;;;;;5.04;36.40;100490.48;1773528;79;20935;-63
2022/01/13 00:52:25;;;;;;;35.83;21.25;;;;;;;5.07;36.30;100488.95;1782495;79;21433;-62
2022/01/13 00:54:52;;;;;;;30.45;19.77;;;;;;;5.07;36.24;100473.98;1776247;78;21085;-63
2022/01/13 00:57:19;;;;;;;30.55;19.30;;;;;;;4.97;36.32;100475.13;1792312;79;21485;-62
2022/01/13 00:59:45;;;;;;;32.40;19.35;;;;;;;4.93;36.35;100460.47;1794351;78;20943;-63
2022/01/13 01:02:11;;;;;;;31.37;18.75;;;;;;;4.84;36.45;100458.52;1777349;78;20943;-63
2022/01/13 01:04:38;;;;;;;36.15;20.65;;;;;;;4.79;36.53;100469.86;1743046;80;21516;-63
2022/01/13 01:07:04;;;;;;;39.20;21.93;;;;;;;4.76;36.60;100469.23;1747682;82;21078;-64
2022/01/13 01:09:40;;;;;;;38.90;23.15;;;;;;;4.76;36.55;100466.12;1787146;78;20931;-63
2022/01/13 01:11:59;;;;;;;41.55;21.65;;;;;;;4.76;36.57;100465.28;1779508;78;20912;-63
2022/01/13 01:14:31;;;;;;;37.45;21.55;;;;;;;4.75;36.64;100456.98;1777489;79;20957;-64
2022/01/13 01:16:55;;;;;;;40.85;21.57;;;;;;;4.77;36.64;100445.38;1785998;79;20936;-62
2022/01/13 01:19:27;;;;;;;35.70;21.33;;;;;;;4.76;36.71;100432.32;1779754;79;21084;-62
2022/01/13 01:26:52;;;;;;;38.17;19.90;;;;;;;4.67;36.98;100423.27;1792923;78;20966;-62
2022/01/13 01:29:34;;;;;;;33.67;18.98;;;;;;;4.63;37.07;100423.14;1783552;79;20919;-63
2022/01/13 01:31:58;;;;;;;33.88;19.57;;;;;;;4.61;37.24;100410.55;1788439;78;21125;-62
2022/01/13 01:34:44;;;;;;;36.05;19.95;;;;;;;4.61;37.36;100411.03;1786394;78;20872;-62
2022/01/13 01:36:58;;;;;;;38.53;21.00;;;;;;;4.62;37.42;100414.86;1805802;78;21448;-62
2022/01/13 01:39:24;;;;;;;37.15;20.50;;;;;;;4.65;37.50;100417.28;1811994;78;20886;-62
2022/01/13 01:41:54;;;;;;;37.17;20.30;;;;;;;4.65;37.64;100408.05;1815974;78;20934;-62
2022/01/13 01:44:30;;;;;;;32.50;20.57;;;;;;;4.68;37.77;100405.20;1808231;78;21119;-64
2022/01/13 01:46:55;;;;;;;30.65;18.67;;;;;;;4.74;37.83;100411.83;1801311;78;21385;-62
2022/01/13 01:49:25;;;;;;;30.25;17.67;;;;;;;4.83;37.91;100413.31;1806524;78;21016;-64
2022/01/13 01:51:56;;;;;;;29.82;18.52;;;;;;;4.92;37.88;100415.30;1817382;78;20942;-63
2022/01/13 01:54:23;;;;;;;28.50;18.40;;;;;;;4.94;37.98;100399.34;1809883;78;20918;-63
2022/01/13 01:56:50;;;;;;;34.10;19.70;;;;;;;5.06;37.96;100401.58;1802077;78;21857;-62
2022/01/13 01:59:19;;;;;;;36.25;19.37;;;;;;;5.20;37.90;100396.95;1808827;78;21036;-62
2022/01/13 02:01:47;;;;;;;35.30;20.27;;;;;;;5.31;37.82;100400.95;1818439;78;21033;-64
2022/01/13 02:04:14;;;;;;;33.85;18.48;;;;;;;5.37;37.71;100394.38;1805757;78;20973;-64
2022/01/13 02:06:41;;;;;;;31.77;19.37;;;;;;;5.38;37.71;100388.97;1812869;78;20930;-64
2022/01/13 02:09:08;;;;;;;29.35;17.98;;;;;;;5.44;37.65;100385.03;1818483;78;21147;-61
2022/01/13 02:11:42;;;;;;;31.87;19.45;;;;;;;5.51;37.58;100385.77;1820532;78;20937;-63
2022/01/13 02:14:20;;;;;;;30.55;18.85;;;;;;;5.57;37.49;100377.39;1804978;78;20930;-63
2022/01/13 02:16:43;;;;;;;34.10;19.23;;;;;;;5.66;37.45;100361.81;1805869;78;21510;-64
2022/01/13 02:19:04;;;;;;;35.43;20.88;;;;;;;5.74;37.39;100354.96;1819918;78;21059;-62
2022/01/13 02:21:30;;;;;;;34.75;18.25;;;;;;;5.73;37.28;100351.98;1813473;78;21140;-61
2022/01/13 02:23:56;;;;;;;38.38;19.30;;;;;;;5.76;37.21;100351.72;1813225;78;20946;-61
2022/01/13 02:26:23;;;;;;;32.65;18.65;;;;;;;5.78;37.27;100351.14;1814218;78;20926;-62
2022/01/13 02:28:51;;;;;;;29.48;17.92;;;;;;;5.81;37.26;100368.55;1812962;78;21023;-62
2022/01/13 02:31:19;;;;;;;31.33;19.17;;;;;;;5.87;37.25;100376.00;1812794;78;20977;-63
2022/01/13 02:33:45;;;;;;;35.52;20.43;;;;;;;5.91;37.25;100372.19;1809324;78;21140;-63
2022/01/13 02:36:12;;;;;;;34.43;19.87;;;;;;;5.92;37.22;100373.84;1802759;78;20961;-63
2022/01/13 02:38:39;;;;;;;34.03;19.17;;;;;;;5.97;37.23;100358.51;1776176;79;20976;-61
2022/01/13 02:41:05;;;;;;;31.85;17.90;;;;;;;6.03;37.17;100349.61;1787990;79;20991;-63
2022/01/13 02:49:09;;;;;;;27.70;17.02;;;;;;;6.23;37.13;100332.67;1802088;78;20924;-64
2022/01/13 02:51:37;;;;;;;28.20;17.45;;;;;;;6.29;36.96;100306.58;1797930;79;21054;-62
2022/01/13 02:54:04;;;;;;;30.32;17.57;;;;;;;6.31;36.79;100319.69;1799652;79;20904;-63
2022/01/13 02:56:32;;;;;;;38.17;19.55;;;;;;;6.36;36.68;100312.23;1802578;79;20867;-62
2022/01/13 02:58:58;;;;;;;33.75;19.62;;;;;;;6.35;36.60;100317.15;1805706;79;20934;-63
2022/01/13 03:01:25;;;;;;;27.98;17.55;;;;;;;6.35;36.60;100299.97;1803977;78;20995;-63
2022/01/13 03:03:52;;;;;;;26.40;18.12;;;;;;;6.38;36.51;100298.41;1803533;78;21182;-62
2022/01/13 03:06:23;;;;;;;30.92;18.17;;;;;;;6.36;36.51;100303.80;1802794;79;21469;-63
2022/01/13 03:08:50;;;;;;;29.02;16.75;;;;;;;6.37;36.49;100296.23;1798424;79;20867;-62
2022/01/13 03:11:17;;;;;;;29.07;16.65;;;;;;;6.39;36.39;100302.73;1801247;78;20997;-62
2022/01/13 03:13:43;;;;;;;30.30;18.65;;;;;;;6.39;36.42;100300.09;1803407;79;20965;-62
2022/01/13 03:16:15;;;;;;;34.38;20.30;;;;;;;6.47;36.37;100306.90;1810765;78;21139;-62
2022/01/13 03:18:42;;;;;;;30.12;17.40;;;;;;;6.47;36.27;100311.70;1807149;79;21008;-62
2022/01/13 03:21:08;;;;;;;27.93;17.85;;;;;;;6.46;36.28;100325.06;1802560;79;21493;-63
2022/01/13 03:23:36;;;;;;;27.37;17.52;;;;;;;6.48;36.32;100326.61;1808022;78;21010;-62
2022/01/13 03:26:03;;;;;;;27.65;17.82;;;;;;;6.54;36.32;100327.92;1803888;79;21438;-62
2022/01/13 03:28:31;;;;;;;29.02;18.42;;;;;;;6.53;36.28;100317.83;1804202;79;21133;-62
2022/01/13 03:31:02;;;;;;;28.45;17.77;;;;;;;6.56;36.22;100320.70;1793498;79;21516;-62
2022/01/13 03:33:28;;;;;;;30.30;17.77;;;;;;;6.62;36.19;100334.76;1801040;78;21540;-63
2022/01/13 03:35:58;;;;;;;33.85;18.85;;;;;;;6.66;36.21;100332.20;1800097;79;20882;-63
2022/01/13 03:38:25;;;;;;;31.68;18.77;;;;;;;6.68;36.15;100317.05;1809945;78;20891;-61
2022/01/13 03:40:51;;;;;;;30.70;17.45;;;;;;;6.69;36.06;100308.16;1798370;79;21166;-63
2022/01/13 03:43:18;;;;;;;28.05;16.70;;;;;;;6.72;35.97;100293.38;1790853;79;20966;-62
2022/01/13 03:45:45;;;;;;;26.82;16.57;;;;;;;6.78;35.89;100284.44;1791882;79;20918;-63
2022/01/13 03:48:13;;;;;;;23.90;16.00;;;;;;;6.77;35.88;100280.61;1785084;79;21548;-63
2022/01/13 03:50:41;;;;;;;27.62;16.70;;;;;;;6.77;35.88;100280.61;1783216;79;22256;-64
2022/01/13 03:53:28;;;;;;;26.27;16.73;;;;;;;6.73;35.91;100263.30;1782529;79;21125;-63
2022/01/13 03:56:21;;;;;;;31.15;17.95;;;;;;;6.66;35.98;100272.23;1761576;79;20923;-63
2022/01/13 03:59:45;;;;;;;30.70;18.20;;;;;;;6.62;36.06;100270.80;1764613;80;20958;-63
2022/01/13 04:02:13;;;;;;;25.97;16.67;;;;;;;6.64;36.07;100270.21;1782107;79;20989;-63
2022/01/13 04:04:43;;;;;;;23.47;15.35;;;;;;;6.57;36.13;100257.11;1772908;79;21003;-63
2022/01/13 04:07:16;;;;;;;23.95;15.63;;;;;;;6.57;36.13;100257.11;1779538;79;21795;-63
2022/01/13 04:09:49;;;;;;;22.82;15.25;;;;;;;6.57;36.21;100249.19;1768308;80;20835;-63
2022/01/13 04:12:16;;;;;;;22.20;15.25;;;;;;;6.57;36.21;100249.19;1762358;80;21042;-63
2022/01/13 04:17:11;;;;;;;21.90;15.43;;;;;;;6.55;36.19;100229.12;1777975;79;20911;-63
2022/01/13 04:19:38;;;;;;;19.87;14.23;;;;;;;6.52;36.28;100228.05;1780077;79;21086;-62
2022/01/13 04:22:07;;;;;;;24.75;15.28;;;;;;;6.56;36.28;100220.25;1780536;79;20981;-63
2022/01/13 04:24:35;;;;;;;27.58;15.65;;;;;;;6.58;36.15;100223.59;1778658;80;21575;-63
2022/01/13 04:27:02;;;;;;;21.75;15.50;;;;;;;6.61;36.29;100222.87;1732011;80;20981;-62
2022/01/13 04:29:41;;;;;;;21.15;14.07;;;;;;;6.67;36.26;100225.49;1778100;79;20934;-63
2022/01/13 04:31:57;;;;;;;22.58;15.20;;;;;;;6.68;36.12;100214.77;1776839;79;21170;-62
2022/01/13 04:34:23;;;;;;;26.33;15.98;;;;;;;6.68;36.12;100214.77;1778165;80;21409;-64
2022/01/13 04:36:49;;;;;;;23.42;14.80;;;;;;;6.71;36.36;100204.42;1781553;79;21080;-63
2022/01/13 04:39:17;;;;;;;22.70;15.23;;;;;;;6.71;36.36;100204.42;1778093;80;20939;-62
2022/01/13 04:41:46;;;;;;;21.65;15.15;;;;;;;6.76;36.23;100203.08;1770651;79;21433;-63
2022/01/13 04:44:17;;;;;;;19.90;13.65;;;;;;;6.81;36.16;100191.62;1779413;80;21151;-63
2022/01/13 04:46:46;;;;;;;23.77;14.78;;;;;;;6.79;36.10;100179.50;1793950;79;20840;-64
2022/01/13 04:49:13;;;;;;;24.12;13.98;;;;;;;6.79;36.10;100179.50;1801853;79;20935;-62
2022/01/13 04:51:40;;;;;;;21.50;14.73;;;;;;;6.80;36.13;100187.80;1798911;79;21520;-63
2022/01/13 04:54:06;;;;;;;25.15;15.30;;;;;;;7.14;35.69;100183.13;1775579;79;20972;-62
2022/01/13 04:56:52;;;;;;;21.42;15.25;;;;;;;7.21;35.62;100189.56;1798155;79;21163;-63
2022/01/13 04:59:11;;;;;;;23.45;16.17;;;;;;;6.98;35.94;100171.69;1796244;79;20939;-62
2022/01/13 05:01:38;;;;;;;24.47;15.65;;;;;;;6.99;35.99;100173.86;1784835;79;20931;-63
2022/01/13 05:04:05;;;;;;;23.85;16.37;;;;;;;6.99;36.04;100176.50;1783992;79;20884;-63
2022/01/13 05:06:33;;;;;;;22.80;15.63;;;;;;;7.11;36.13;100178.94;1798528;79;20914;-63
2022/01/13 05:08:59;;;;;;;23.45;15.58;;;;;;;7.11;36.13;100178.94;1778958;79;21787;-63
2022/01/13 05:11:26;;;;;;;28.42;17.70;;;;;;;7.16;35.95;100163.98;1792838;79;20865;-62
2022/01/13 05:13:53;;;;;;;27.32;16.73;;;;;;;7.18;35.97;100166.84;1790537;79;20932;-62
2022/01/13 05:16:24;;;;;;;25.05;15.75;;;;;;;7.18;35.69;100144.83;1797159;79;20935;-63
2022/01/13 05:19:15;;;;;;;28.95;16.97;;;;;;;7.18;35.69;100144.83;1800496;79;21021;-62
2022/01/13 05:21:23;;;;;;;25.68;16.20;;;;;;;7.16;35.92;100143.66;1782734;79;21149;-63
2022/01/13 05:23:47;;;;;;;27.67;16.48;;;;;;;7.20;35.91;100133.62;1786553;79;20994;-63
2022/01/13 05:26:13;;;;;;;29.00;17.15;;;;;;;7.22;35.94;100138.31;1801092;79;21521;-63
2022/01/13 05:28:41;;;;;;;29.20;17.65;;;;;;;7.24;35.86;100155.73;1794187;79;20970;-63
2022/01/13 05:31:08;;;;;;;27.20;16.48;;;;;;;7.27;35.92;100158.61;1785768;79;21496;-63
2022/01/13 05:33:34;;;;;;;29.07;17.25;;;;;;;7.26;35.99;100151.63;1785761;79;21145;-63
2022/01/13 05:36:01;;;;;;;34.50;18.77;;;;;;;7.29;35.98;100167.23;1782392;79;20971;-63
2022/01/13 05:38:28;;;;;;;30.95;17.55;;;;;;;7.34;36.04;100163.70;1786444;79;21540;-63
2022/01/13 05:40:54;;;;;;;53.17;27.60;;;;;;;7.31;36.07;100160.00;1783743;79;20908;-63
2022/01/13 05:43:20;;;;;;;56.40;27.62;;;;;;;7.37;36.05;100172.23;1789253;79;21031;-63
2022/01/13 05:45:47;;;;;;;39.90;22.22;;;;;;;7.48;35.96;100164.17;1792049;79;21124;-64
2022/01/13 05:48:13;;;;;;;33.25;20.50;;;;;;;7.57;35.93;100162.53;1793234;79;21186;-63
2022/01/13 05:50:39;;;;;;;35.78;21.20;;;;;;;7.64;35.86;100158.87;1738198;81;21542;-62
2022/01/13 05:53:06;;;;;;;33.40;18.65;;;;;;;7.63;35.83;100166.45;1757250;81;20981;-63
2022/01/13 05:55:33;;;;;;;31.68;19.77;;;;;;;7.64;35.86;100170.80;1717621;82;21505;-64
2022/01/13 05:58:00;;;;;;;32.70;19.77;;;;;;;7.66;35.92;100161.74;1765856;81;21186;-63
2022/01/13 06:00:26;;;;;;;29.32;18.30;;;;;;;7.67;35.92;100160.75;1748415;81;20976;-63
2022/01/13 06:02:53;;;;;;;33.20;20.72;;;;;;;7.73;35.89;100159.37;1727117;82;20982;-63
2022/01/13 06:05:19;;;;;;;34.33;20.88;;;;;;;7.72;35.90;100156.36;1722542;82;21053;-64
2022/01/13 06:07:46;;;;;;;31.73;19.77;;;;;;;7.70;36.01;100153.86;1747718;81;22387;-64
2022/01/13 06:10:18;;;;;;;31.40;19.57;;;;;;;7.70;36.08;100143.75;1727897;82;21138;-64
2022/01/13 06:12:47;;;;;;;34.43;21.20;;;;;;;7.80;36.02;100144.60;1751929;80;20920;-64
2022/01/13 06:15:15;;;;;;;34.30;21.07;;;;;;;7.90;35.88;100134.38;1756371;80;20959;-63
2022/01/13 06:17:43;;;;;;;40.23;22.05;;;;;;;7.94;35.85;100121.22;1795764;79;20939;-64
2022/01/13 06:20:11;;;;;;;39.40;22.22;;;;;;;7.90;35.89;100111.05;1785243;79;20978;-64
2022/01/13 06:22:39;;;;;;;36.98;21.55;;;;;;;7.79;36.00;100105.38;1779968;79;21148;-62
2022/01/13 06:25:07;;;;;;;31.48;20.02;;;;;;;7.64;36.29;100112.53;1778361;79;20979;-64
2022/01/13 06:27:34;;;;;;;35.95;21.20;;;;;;;7.65;36.39;100104.92;1753946;81;21092;-63
2022/01/13 06:30:00;;;;;;;41.77;22.62;;;;;;;7.74;36.37;100102.31;1743453;80;20930;-64
2022/01/13 06:32:26;;;;;;;46.33;24.63;;;;;;;7.79;36.37;100095.27;1741799;80;21551;-63
2022/01/13 06:34:53;;;;;;;39.73;21.93;;;;;;;7.81;36.39;100104.75;1746076;81;21102;-63
2022/01/13 06:37:19;;;;;;;38.92;21.73;;;;;;;7.80;36.48;100103.06;1763823;80;20943;-62
2022/01/13 06:39:46;;;;;;;37.58;21.97;;;;;;;7.77;36.53;100102.52;1718020;82;21013;-68
2022/01/13 06:42:13;;;;;;;43.10;25.08;;;;;;;7.81;36.57;100101.26;1742738;81;21021;-64
2022/01/13 06:44:40;;;;;;;46.70;24.47;;;;;;;7.81;36.67;100091.98;1740096;81;20907;-61
2022/01/13 06:47:07;;;;;;;45.80;23.62;;;;;;;7.82;36.66;100102.95;1735165;81;21016;-62
2022/01/13 06:49:34;;;;;;;40.70;22.25;;;;;;;7.82;36.71;100109.57;1732958;82;20949;-67
2022/01/13 06:52:00;;;;;;;45.85;23.35;;;;;;;7.79;36.92;100099.24;1733278;82;20899;-63
2022/01/13 06:54:27;;;;;;;42.27;23.92;;;;;;;7.76;37.20;100099.03;1714705;82;20982;-65
2022/01/13 06:56:53;;;;;;;41.63;24.65;;;;;;;7.83;37.34;100094.84;1707995;82;21104;-63
2022/01/13 06:59:20;;;;;;;45.17;25.20;;;;;;;7.93;37.51;100094.84;1716277;82;21150;-64
2022/01/13 07:01:47;;;;;;;42.05;23.83;;;;;;;8.02;37.29;100086.08;1724661;83;21002;-63
2022/01/13 07:04:14;;;;;;;35.35;22.10;;;;;;;8.04;37.33;100090.74;1724951;83;21017;-62
2022/01/13 07:06:42;;;;;;;40.58;24.82;;;;;;;8.07;37.33;100096.61;1718383;82;21477;-64
2022/01/13 07:09:12;;;;;;;49.35;27.82;;;;;;;8.09;37.24;100076.10;1720397;82;21488;-65
2022/01/13 07:11:40;;;;;;;46.77;26.00;;;;;;;8.15;37.14;100073.86;1768749;80;21120;-64
2022/01/13 07:14:06;;;;;;;39.25;24.57;;;;;;;8.27;37.05;100076.73;1774834;80;21638;-65
2022/01/13 07:16:34;;;;;;;42.85;24.47;;;;;;;8.35;36.94;100079.04;1780859;80;21597;-62
2022/01/13 07:19:05;;;;;;;39.00;23.15;;;;;;;8.36;36.95;100066.14;1778914;80;20966;-66
2022/01/13 07:21:32;;;;;;;42.20;22.73;;;;;;;8.36;37.04;100071.92;1777306;80;21064;-62
2022/01/13 07:23:59;;;;;;;43.20;24.15;;;;;;;8.40;37.12;100047.63;1748850;80;21061;-61
2022/01/13 07:26:26;;;;;;;43.15;23.98;;;;;;;8.35;37.14;100036.62;1778846;80;20997;-62
2022/01/13 07:28:52;;;;;;;40.48;24.23;;;;;;;8.36;59.57;100044.93;1777652;80;20906;-59
2022/01/13 07:31:19;;;;;;;41.92;24.30;;;;;;;8.35;40.63;100035.30;1777497;80;22163;-62
2022/01/13 07:33:46;;;;;;;43.73;25.40;;;;;;;8.39;40.51;100034.05;1771882;80;20943;-63
2022/01/13 07:36:12;;;;;;;44.05;25.52;;;;;;;8.45;40.69;100018.88;1778970;79;21573;-62
2022/01/13 07:38:38;;;;;;;50.17;27.73;;;;;;;8.47;40.69;100023.53;1778090;79;21597;-65
2022/01/13 07:41:05;;;;;;;50.38;26.50;;;;;;;8.56;40.20;100029.31;1770223;79;21004;-63
2022/01/13 07:43:32;;;;;;;41.73;25.60;;;;;;;8.63;39.98;100023.77;1777475;80;20989;-67
2022/01/13 07:45:58;;;;;;;42.80;24.65;;;;;;;8.77;39.54;100019.81;1785110;79;20979;-63
2022/01/13 07:48:25;;;;;;;46.53;25.20;;;;;;;8.77;39.19;100014.51;1782257;79;21100;-64
2022/01/13 07:50:52;;;;;;;49.00;25.20;;;;;;;8.76;38.88;100016.00;1784379;79;22127;-69
2022/01/13 07:53:18;;;;;;;52.03;28.87;;;;;;;8.79;40.82;100009.05;1781273;79;20908;-66
2022/01/13 07:55:45;;;;;;;49.48;27.98;;;;;;;8.91;39.79;100009.22;1787537;79;20978;-65
2022/01/13 07:58:11;;;;;;;50.48;28.17;;;;;;;9.00;39.31;100016.28;1790354;79;20927;-63
2022/01/13 08:00:38;;;;;;;56.10;29.07;;;;;;;9.11;38.96;100018.27;1784176;79;21751;-63
2022/01/13 08:03:05;;;;;;;50.95;28.00;;;;;;;9.17;40.14;100019.50;1795940;79;21029;-64
2022/01/13 08:05:32;;;;;;;45.85;26.70;;;;;;;9.21;38.66;100019.53;1792955;79;20840;-63
2022/01/13 08:07:59;;;;;;;48.90;27.70;;;;;;;9.17;38.26;100020.82;1783670;79;20935;-64
2022/01/13 08:10:25;;;;;;;50.23;27.40;;;;;;;9.17;38.04;100024.80;1791947;79;21045;-65
2022/01/13 08:12:52;;;;;;;49.58;26.87;;;;;;;9.18;38.08;100030.44;1782626;79;21204;-67
2022/01/13 08:15:18;;;;;;;53.50;28.67;;;;;;;9.14;37.94;100024.61;1795994;79;20900;-64
2022/01/13 08:20:33;;;;;;;47.73;26.93;;;;;;;9.28;37.76;100034.71;1795109;79;21061;-66
2022/01/13 08:23:00;;;;;;;52.83;28.20;;;;;;;9.42;37.71;100043.16;1795079;79;20977;-66
2022/01/13 08:25:27;;;;;;;51.30;27.70;;;;;;;9.45;37.63;100046.84;1781011;79;21810;-64
2022/01/13 08:27:53;;;;;;;49.35;28.42;;;;;;;9.52;37.58;100050.56;1795781;79;20883;-66
2022/01/13 08:30:20;;;;;;;52.00;28.35;;;;;;;9.60;37.69;100051.98;1792411;79;20946;-66
2022/01/13 08:32:49;;;;;;;56.65;30.10;;;;;;;9.70;37.66;100060.72;1791528;79;20974;-65
2022/01/13 08:35:19;;;;;;;50.38;28.40;;;;;;;9.78;37.58;100060.31;1793198;79;21360;-66
2022/01/13 08:37:45;;;;;;;49.42;27.60;;;;;;;9.88;37.37;100069.56;1794801;79;21881;-61
2022/01/13 08:40:15;;;;;;;50.80;29.30;;;;;;;9.89;37.24;100058.77;1796099;79;20911;-61
2022/01/13 08:42:42;;;;;;;50.00;28.05;;;;;;;9.84;37.67;100044.27;1783863;79;20937;-63
2022/01/13 08:45:11;;;;;;;51.73;28.50;;;;;;;9.85;37.46;100031.33;1798728;79;20987;-63
2022/01/13 08:47:37;;;;;;;51.73;29.00;;;;;;;9.89;37.53;100026.87;1783308;79;21068;-63
2022/01/13 08:50:07;;;;;;;48.63;26.52;;;;;;;10.07;37.34;100025.53;1784201;79;21129;-64
2022/01/13 08:52:44;;;;;;;43.15;27.25;;;;;;;10.10;37.06;100009.27;1782245;79;21012;-64
2022/01/13 08:55:10;;;;;;;55.17;29.35;;;;;;;10.17;37.02;100006.36;1775691;79;20968;-66
2022/01/13 08:57:38;;;;;;;51.20;28.10;;;;;;;10.25;36.80;100005.58;1768585;79;21003;-63
2022/01/13 09:00:06;;;;;;;46.55;26.97;;;;;;;10.22;36.81;100010.72;1789055;79;20896;-65
2022/01/13 09:02:33;;;;;;;47.70;28.38;;;;;;;10.18;36.95;100001.88;1784264;79;21093;-64
2022/01/13 09:05:03;;;;;;;49.27;27.37;;;;;;;10.17;37.30;99997.05;1790115;79;21521;-65
2022/01/13 09:07:30;;;;;;;52.17;29.20;;;;;;;10.20;37.22;100002.55;1783906;79;20887;-64
2022/01/13 09:09:57;;;;;;;48.08;28.23;;;;;;;10.25;37.15;99989.62;1776601;79;20994;-68
2022/01/13 09:12:23;;;;;;;47.75;29.75;;;;;;;10.26;37.25;99978.02;1782946;79;21410;-64
2022/01/13 09:14:58;;;;;;;54.15;29.02;;;;;;;10.19;37.52;99972.98;1790419;79;21150;-64
2022/01/13 09:17:23;;;;;;;50.50;28.30;;;;;;;10.25;37.51;99962.55;1775829;79;20940;-67
2022/01/13 09:19:49;;;;;;;53.30;27.07;;;;;;;10.36;37.47;99964.11;1785390;79;20978;-66
2022/01/13 09:22:18;;;;;;;50.65;28.62;;;;;;;10.42;37.52;99964.83;1785340;79;21432;-67
2022/01/13 09:24:46;;;;;;;54.70;29.23;;;;;;;10.48;37.48;99962.87;1784255;79;20954;-65
2022/01/13 09:27:15;;;;;;;47.23;26.68;;;;;;;10.55;37.53;99967.89;1787106;79;22052;-70
2022/01/13 09:29:42;;;;;;;47.10;28.30;;;;;;;10.57;37.67;99960.58;1715830;82;20947;-65
2022/01/13 09:32:11;;;;;;;50.28;29.10;;;;;;;10.58;37.84;99960.92;1782113;79;21485;-64
2022/01/13 09:34:41;;;;;;;44.55;27.30;;;;;;;10.67;37.98;99958.62;1793029;79;21063;-63
2022/01/13 09:37:06;;;;;;;47.03;26.62;;;;;;;10.74;37.94;99958.84;1785824;79;20912;-62
2022/01/13 09:39:35;;;;;;;45.58;27.42;;;;;;;10.78;38.09;99955.69;1786251;79;22440;-61
2022/01/13 09:42:04;;;;;;;48.13;27.58;;;;;;;10.85;38.00;99948.72;1782974;79;21545;-63
2022/01/13 09:44:31;;;;;;;46.88;27.95;;;;;;;10.87;38.03;99937.41;1787649;79;20943;-63
2022/01/13 09:46:57;;;;;;;49.63;28.00;;;;;;;10.94;38.03;99935.80;1789904;79;21047;-67
2022/01/13 09:49:25;;;;;;;45.92;28.25;;;;;;;10.96;38.07;99931.14;1796902;79;20983;-65
2022/01/13 09:51:51;;;;;;;51.55;28.45;;;;;;;10.91;38.69;99921.47;1782612;79;21178;-63
2022/01/13 09:54:17;;;;;;;54.27;29.52;;;;;;;10.97;39.18;99907.52;1793258;79;21668;-61
2022/01/13 09:56:45;;;;;;;52.98;29.05;;;;;;;11.01;38.70;99897.36;1790628;79;21437;-61
2022/01/13 09:59:11;;;;;;;53.63;29.92;;;;;;;11.05;39.06;99884.08;1787756;79;20990;-61
2022/01/13 10:01:37;;;;;;;52.38;30.17;;;;;;;11.11;38.73;99876.75;1783569;79;21532;-61
2022/01/13 10:04:04;;;;;;;54.42;28.73;;;;;;;11.24;38.46;99867.78;1787561;79;21138;-61
2022/01/13 10:06:30;;;;;;;49.98;29.10;;;;;;;11.18;38.64;99862.61;1787769;79;20939;-62
2022/01/13 10:08:58;;;;;;;51.33;29.67;;;;;;;11.07;38.72;99861.62;1790698;79;21593;-61
2022/01/13 10:11:54;;;;;;;51.10;29.77;;;;;;;11.03;38.80;99854.94;1785294;79;21389;-65
2022/01/13 10:16:57;;;;;;;52.10;28.75;;;;;;;11.11;39.30;99834.14;1781566;79;21136;-63
2022/01/13 10:19:45;;;;;;;50.95;27.45;;;;;;;11.10;41.11;99827.17;1793216;79;20939;-63
2022/01/13 10:22:16;;;;;;;46.53;25.97;;;;;;;20.89;27.38;99796.17;1796456;79;21585;-61
2022/01/13 10:24:52;;;;;;;51.18;28.47;;;;;;;20.11;28.33;99792.53;1782596;79;20868;-61
2022/01/13 10:27:21;;;;;;;51.00;27.67;;;;;;;19.11;30.46;99787.66;1781253;79;20993;-61
2022/01/13 10:30:11;;;;;;;49.40;28.67;;;;;;;17.75;30.93;99796.58;1800551;79;21121;-61
2022/01/13 10:32:39;;;;;;;52.93;25.97;;;;;;;17.44;31.74;99799.04;1781544;79;21573;-61
2022/01/13 10:35:17;;;;;;;49.20;26.68;;;;;;;17.38;31.58;99792.63;1780796;79;20956;-62
2022/01/13 10:37:46;;;;;;;45.95;27.05;;;;;;;16.98;33.33;99782.33;1790074;79;20885;-65
2022/01/13 10:40:16;;;;;;;46.58;24.98;;;;;;;16.45;33.54;99793.94;1791323;79;20974;-67
2022/01/13 10:45:37;;;;;;;39.78;22.98;;;;;;;16.22;33.75;99787.51;1792387;79;21462;-67
2022/01/13 10:48:10;;;;;;;47.48;24.30;;;;;;;16.15;33.72;99763.84;1788819;79;21034;-65
2022/01/13 10:50:56;;;;;;;43.58;24.23;;;;;;;16.36;33.40;99772.30;1796375;79;20952;-63
2022/01/13 10:53:38;;;;;;;47.38;25.30;;;;;;;16.32;33.14;99764.34;1790268;79;21002;-61
2022/01/13 10:56:10;;;;;;;37.48;22.42;;;;;;;16.30;32.95;99757.81;1799472;79;21161;-61
2022/01/13 10:58:43;;;;;;;42.40;23.40;;;;;;;16.08;32.74;99740.69;1795343;79;20958;-61
2022/01/13 11:01:11;;;;;;;39.95;22.32;;;;;;;16.08;33.33;99731.59;1791959;79;20974;-63
2022/01/13 11:03:40;;;;;;;36.65;21.82;;;;;;;16.11;32.48;99745.66;1792192;79;21051;-61
2022/01/13 11:06:09;;;;;;;40.28;20.52;;;;;;;16.08;32.57;99746.34;1793806;79;21454;-60
2022/01/13 11:08:45;;;;;;;36.25;21.23;;;;;;;16.11;32.63;99759.91;1794870;79;21187;-60
2022/01/13 11:11:26;;;;;;;37.33;21.17;;;;;;;15.99;32.71;99764.16;1796247;79;20974;-61
2022/01/13 11:13:59;;;;;;;30.62;20.02;;;;;;;16.11;32.39;99777.86;1796735;79;20924;-61
2022/01/13 11:16:26;;;;;;;29.55;19.07;;;;;;;16.03;32.38;99780.20;1790268;79;20999;-62
2022/01/13 11:18:53;;;;;;;32.75;20.40;;;;;;;15.93;32.37;99787.24;1790797;79;21002;-61
2022/01/13 11:21:19;;;;;;;32.90;19.05;;;;;;;16.08;32.20;99775.87;1791477;79;21493;-60
2022/01/13 11:23:50;;;;;;;37.17;21.80;;;;;;;16.03;32.08;99766.25;1797051;79;20884;-61
2022/01/13 11:26:17;;;;;;;32.13;19.10;;;;;;;15.92;32.22;99784.27;1761878;79;20934;-61
2022/01/13 11:28:43;;;;;;;30.27;19.30;;;;;;;15.87;32.23;99781.34;1796798;79;21029;-62
2022/01/13 11:31:10;;;;;;;32.23;19.52;;;;;;;15.85;32.37;99781.23;1802108;79;20946;-63
2022/01/13 11:33:38;;;;;;;28.05;18.80;;;;;;;15.90;32.70;99771.53;1800451;79;21129;-62
2022/01/13 11:36:08;;;;;;;32.50;19.02;;;;;;;15.93;33.16;99761.75;1788520;79;21052;-61
2022/01/13 11:38:34;;;;;;;29.40;18.50;;;;;;;16.15;34.42;99750.42;1765628;79;20998;-61
2022/01/13 11:41:05;;;;;;;30.65;18.87;;;;;;;15.97;35.21;99738.05;1786563;79;21089;-61
2022/01/13 11:43:36;;;;;;;27.87;18.82;;;;;;;15.85;36.68;99731.59;1795585;79;20900;-61
2022/01/13 11:46:21;;;;;;;27.75;18.60;;;;;;;15.81;37.55;99736.52;1799285;79;21134;-63
2022/01/13 11:49:07;;;;;;;29.23;17.90;;;;;;;15.75;37.27;99721.20;1791486;79;20963;-63